createdAt,value
2019-05-25T00:00:35.258Z,88.23
2019-05-25T00:01:35.273Z,88.74
2019-05-25T00:02:35.248Z,87.92
2019-05-25T00:03:35.221Z,88.23
2019-05-25T00:04:35.237Z,87.81
2019-05-25T00:05:35.205Z,87.92
2019-05-25T00:06:35.188Z,88.64
2019-05-25T00:07:35.188Z,87.71
2019-05-25T00:08:35.165Z,87.30
2019-05-25T00:09:35.161Z,87.60
2019-05-25T00:10:35.170Z,88.02
2019-05-25T00:11:35.140Z,87.51
2019-05-25T00:12:35.139Z,87.40
2019-05-25T00:13:35.118Z,87.81
2019-05-25T00:14:35.101Z,87.87
2019-05-25T00:15:35.095Z,87.51
2019-05-25T00:16:35.089Z,87.46
2019-05-25T00:17:35.081Z,87.51
2019-05-25T00:18:35.080Z,87.40
2019-05-25T00:19:35.117Z,87.40
2019-05-25T00:20:35.038Z,87.19
2019-05-25T00:21:35.028Z,86.88
2019-05-25T00:22:35.083Z,87.81
2019-05-25T00:23:35.021Z,87.98
2019-05-25T00:24:34.998Z,87.40
2019-05-25T00:25:34.988Z,87.81
2019-05-25T00:26:34.972Z,87.26
2019-05-25T00:27:35.022Z,87.67
2019-05-25T00:28:41.984Z,87.30
2019-05-25T00:29:34.941Z,87.09
2019-05-25T00:30:34.928Z,87.92
2019-05-25T00:31:34.925Z,87.30
2019-05-25T00:32:34.911Z,87.40
2019-05-25T00:33:34.963Z,87.57
2019-05-25T00:34:34.906Z,87.36
2019-05-25T00:35:34.880Z,87.57
2019-05-25T00:36:34.866Z,87.57
2019-05-25T00:37:34.876Z,87.57
2019-05-25T00:38:34.849Z,87.36
2019-05-25T00:39:34.842Z,87.46
2019-05-25T00:40:34.824Z,87.87
2019-05-25T00:41:34.812Z,87.36
2019-05-25T00:42:34.805Z,87.26
2019-05-25T00:43:34.792Z,87.05
2019-05-25T00:44:34.839Z,87.51
2019-05-25T00:45:34.781Z,87.30
2019-05-25T00:46:34.771Z,87.36
2019-05-25T00:47:34.768Z,87.26
2019-05-25T00:48:34.752Z,85.96
2019-05-25T00:49:34.722Z,86.02
2019-05-25T00:50:34.757Z,87.15
2019-05-25T00:51:34.705Z,87.46
2019-05-25T00:52:34.701Z,87.77
2019-05-25T00:53:34.687Z,87.40
2019-05-25T00:54:34.685Z,87.30
2019-05-25T00:55:34.667Z,87.46
2019-05-25T00:56:34.750Z,87.60
2019-05-25T00:57:34.651Z,87.60
2019-05-25T00:58:34.690Z,87.51
2019-05-25T00:59:34.631Z,87.30
2019-05-25T01:00:41.607Z,87.60
2019-05-25T01:01:34.601Z,87.46
2019-05-25T01:02:34.585Z,87.40
2019-05-25T01:03:34.579Z,87.26
2019-05-25T01:04:34.562Z,87.51
2019-05-25T01:05:34.561Z,86.99
2019-05-25T01:06:34.573Z,87.51
2019-05-25T01:07:34.535Z,87.60
2019-05-25T01:08:34.524Z,87.60
2019-05-25T01:09:34.523Z,86.99
2019-05-25T01:10:34.512Z,87.60
2019-05-25T01:11:34.493Z,87.60
2019-05-25T01:12:34.495Z,87.40
2019-05-25T01:13:34.472Z,87.92
2019-05-25T01:14:34.457Z,87.81
2019-05-25T01:15:34.458Z,87.40
2019-05-25T01:16:34.437Z,87.30
2019-05-25T01:17:34.434Z,87.51
2019-05-25T01:18:34.422Z,87.05
2019-05-25T01:19:34.402Z,87.51
2019-05-25T01:20:34.390Z,86.79
2019-05-25T01:21:34.394Z,87.26
2019-05-25T01:22:34.382Z,86.95
2019-05-25T01:23:34.385Z,87.15
2019-05-25T01:24:43.814Z,87.40
2019-05-25T01:25:35.347Z,86.54
2019-05-25T01:26:34.331Z,86.27
2019-05-25T01:27:34.317Z,86.27
2019-05-25T01:28:37.624Z,86.85
2019-05-25T01:29:34.297Z,87.36
2019-05-25T01:30:34.290Z,87.36
2019-05-25T01:31:34.286Z,87.30
2019-05-25T01:32:41.249Z,87.26
2019-05-25T01:33:34.313Z,87.57
2019-05-25T01:34:34.244Z,87.67
2019-05-25T01:35:34.230Z,87.46
2019-05-25T01:36:34.222Z,87.26
2019-05-25T01:37:34.223Z,86.95
2019-05-25T01:38:34.196Z,87.36
2019-05-25T01:39:34.194Z,87.57
2019-05-25T01:40:34.184Z,87.15
2019-05-25T01:41:34.179Z,87.05
2019-05-25T01:42:34.160Z,87.36
2019-05-25T01:43:34.149Z,87.57
2019-05-25T01:44:34.169Z,87.19
2019-05-25T01:45:34.121Z,87.36
2019-05-25T01:46:34.135Z,87.46
2019-05-25T01:47:34.102Z,87.05
2019-05-25T01:48:34.089Z,87.26
2019-05-25T01:49:34.079Z,87.05
2019-05-25T01:50:34.083Z,86.95
2019-05-25T01:51:34.058Z,87.36
2019-05-25T01:52:34.059Z,87.46
2019-05-25T01:53:34.067Z,86.85
2019-05-25T01:54:34.030Z,86.85
2019-05-25T01:55:34.026Z,87.36
2019-05-25T01:56:34.001Z,87.15
2019-05-25T01:57:33.994Z,87.46
2019-05-25T01:58:33.980Z,87.26
2019-05-25T01:59:34.007Z,86.54
2019-05-25T02:00:33.974Z,87.15
2019-05-25T02:01:34.035Z,86.23
2019-05-25T02:02:33.944Z,87.05
2019-05-25T02:03:33.936Z,87.26
2019-05-25T02:04:41.550Z,86.54
2019-05-25T02:05:33.927Z,86.64
2019-05-25T02:06:33.894Z,87.26
2019-05-25T02:07:33.887Z,87.05
2019-05-25T02:08:33.875Z,85.71
2019-05-25T02:09:33.884Z,87.46
2019-05-25T02:10:33.853Z,87.26
2019-05-25T02:11:33.860Z,86.13
2019-05-25T02:12:33.846Z,85.71
2019-05-25T02:13:33.826Z,86.13
2019-05-25T02:14:33.811Z,86.13
2019-05-25T02:15:33.821Z,85.51
2019-05-25T02:16:33.834Z,85.57
2019-05-25T02:17:33.784Z,85.88
2019-05-25T02:18:33.771Z,86.40
2019-05-25T02:19:33.769Z,86.50
2019-05-25T02:20:33.747Z,86.80
2019-05-25T02:21:33.734Z,85.57
2019-05-25T02:22:33.736Z,85.26
2019-05-25T02:23:33.720Z,85.63
2019-05-25T02:24:33.704Z,86.91
2019-05-25T02:25:33.703Z,85.53
2019-05-25T02:26:33.701Z,85.12
2019-05-25T02:27:33.688Z,85.12
2019-05-25T02:28:33.746Z,84.91
2019-05-25T02:29:33.647Z,85.12
2019-05-25T02:30:33.644Z,85.12
2019-05-25T02:31:33.668Z,84.09
2019-05-25T02:32:33.625Z,84.91
2019-05-25T02:33:33.651Z,84.61
2019-05-25T02:34:33.596Z,84.91
2019-05-25T02:35:33.588Z,85.22
2019-05-25T02:36:40.558Z,85.63
2019-05-25T02:37:33.565Z,85.26
2019-05-25T02:38:33.557Z,85.53
2019-05-25T02:39:33.556Z,85.43
2019-05-25T02:40:33.529Z,85.22
2019-05-25T02:41:33.526Z,85.02
2019-05-25T02:42:33.512Z,85.33
2019-05-25T02:43:33.506Z,85.22
2019-05-25T02:44:33.514Z,85.63
2019-05-25T02:45:33.492Z,85.33
2019-05-25T02:46:33.483Z,84.81
2019-05-25T02:47:33.469Z,85.02
2019-05-25T02:48:33.492Z,84.71
2019-05-25T02:49:33.493Z,84.88
2019-05-25T02:50:33.432Z,84.77
2019-05-25T02:51:33.495Z,84.98
2019-05-25T02:52:33.416Z,84.88
2019-05-25T02:53:33.394Z,85.70
2019-05-25T02:54:33.376Z,85.28
2019-05-25T02:55:34.983Z,85.18
2019-05-25T02:56:33.426Z,85.70
2019-05-25T02:57:33.355Z,85.70
2019-05-25T02:58:33.341Z,85.39
2019-05-25T02:59:33.331Z,84.88
2019-05-25T03:00:33.329Z,84.98
2019-05-25T03:01:33.313Z,85.70
2019-05-25T03:02:33.354Z,85.28
2019-05-25T03:03:33.283Z,84.88
2019-05-25T03:04:33.275Z,85.60
2019-05-25T03:05:33.307Z,84.88
2019-05-25T03:06:33.249Z,84.98
2019-05-25T03:07:33.241Z,84.63
2019-05-25T03:08:41.098Z,84.84
2019-05-25T03:09:33.228Z,84.84
2019-05-25T03:10:33.206Z,84.74
2019-05-25T03:11:33.227Z,84.74
2019-05-25T03:12:33.182Z,84.94
2019-05-25T03:13:33.182Z,85.14
2019-05-25T03:14:33.177Z,84.84
2019-05-25T03:15:33.160Z,84.63
2019-05-25T03:16:33.151Z,84.84
2019-05-25T03:17:33.184Z,84.63
2019-05-25T03:18:33.127Z,85.04
2019-05-25T03:19:33.124Z,84.90
2019-05-25T03:20:33.105Z,84.59
2019-05-25T03:21:33.090Z,84.94
2019-05-25T03:22:33.085Z,84.90
2019-05-25T03:23:33.061Z,85.00
2019-05-25T03:24:33.062Z,84.49
2019-05-25T03:25:46.822Z,85.00
2019-05-25T03:26:34.069Z,84.18
2019-05-25T03:27:33.029Z,83.67
2019-05-25T03:28:33.010Z,83.22
2019-05-25T03:29:33.003Z,83.42
2019-05-25T03:30:33.009Z,84.04
2019-05-25T03:31:32.977Z,83.63
2019-05-25T03:32:32.990Z,84.55
2019-05-25T03:33:33.030Z,84.31
2019-05-25T03:34:32.946Z,84.66
2019-05-25T03:35:32.963Z,84.76
2019-05-25T03:36:33.006Z,84.04
2019-05-25T03:37:32.915Z,83.63
2019-05-25T03:38:32.897Z,83.69
2019-05-25T03:39:32.908Z,83.69
2019-05-25T03:40:39.869Z,83.90
2019-05-25T03:41:32.869Z,83.59
2019-05-25T03:42:32.857Z,83.90
2019-05-25T03:43:32.848Z,84.72
2019-05-25T03:44:32.861Z,84.92
2019-05-25T03:45:32.857Z,84.61
2019-05-25T03:46:32.820Z,84.72
2019-05-25T03:47:32.800Z,84.72
2019-05-25T03:48:32.807Z,84.61
2019-05-25T03:49:32.801Z,84.92
2019-05-25T03:50:32.777Z,84.72
2019-05-25T03:51:32.821Z,84.10
2019-05-25T03:52:32.745Z,83.59
2019-05-25T03:53:32.736Z,83.49
2019-05-25T03:54:32.843Z,83.39
2019-05-25T03:55:32.725Z,83.49
2019-05-25T03:56:32.715Z,83.55
2019-05-25T03:57:32.704Z,82.63
2019-05-25T03:58:32.687Z,83.96
2019-05-25T03:59:32.678Z,83.25
2019-05-25T04:00:32.673Z,83.86
2019-05-25T04:01:32.720Z,84.06
2019-05-25T04:02:32.640Z,83.82
2019-05-25T04:03:32.635Z,84.74
2019-05-25T04:04:32.618Z,84.74
2019-05-25T04:05:32.630Z,84.44
2019-05-25T04:06:32.593Z,83.86
2019-05-25T04:07:32.634Z,84.74
2019-05-25T04:08:32.589Z,84.78
2019-05-25T04:09:32.571Z,84.78
2019-05-25T04:10:32.579Z,84.53
2019-05-25T04:11:32.585Z,84.84
2019-05-25T04:12:39.517Z,84.64
2019-05-25T04:13:32.521Z,83.92
2019-05-25T04:14:32.509Z,84.74
2019-05-25T04:15:32.502Z,83.72
2019-05-25T04:16:32.491Z,83.82
2019-05-25T04:17:32.511Z,84.03
2019-05-25T04:18:32.470Z,83.27
2019-05-25T04:19:32.495Z,82.76
2019-05-25T04:20:32.445Z,82.86
2019-05-25T04:21:32.439Z,82.14
2019-05-25T04:22:32.465Z,82.96
2019-05-25T04:23:32.430Z,81.94
2019-05-25T04:24:32.400Z,82.86
2019-05-25T04:25:32.388Z,83.10
2019-05-25T04:26:32.396Z,83.27
2019-05-25T04:27:32.418Z,83.41
2019-05-25T04:28:32.370Z,83.92
2019-05-25T04:29:32.357Z,83.72
2019-05-25T04:30:32.333Z,83.82
2019-05-25T04:31:32.374Z,83.61
2019-05-25T04:32:32.320Z,84.84
2019-05-25T04:33:32.334Z,84.50
2019-05-25T04:34:32.290Z,84.70
2019-05-25T04:35:32.309Z,84.70
2019-05-25T04:36:32.274Z,83.98
2019-05-25T04:37:32.264Z,83.78
2019-05-25T04:38:32.285Z,84.91
2019-05-25T04:39:32.297Z,84.66
2019-05-25T04:40:32.300Z,84.66
2019-05-25T04:41:32.228Z,84.56
2019-05-25T04:42:32.211Z,84.36
2019-05-25T04:43:32.197Z,84.56
2019-05-25T04:44:39.191Z,83.74
2019-05-25T04:45:32.169Z,83.70
2019-05-25T04:46:32.162Z,82.89
2019-05-25T04:47:32.155Z,82.68
2019-05-25T04:48:32.141Z,82.78
2019-05-25T04:49:32.150Z,82.98
2019-05-25T04:50:32.152Z,82.23
2019-05-25T04:51:32.119Z,81.51
2019-05-25T04:52:32.113Z,81.38
2019-05-25T04:53:32.089Z,81.17
2019-05-25T04:54:32.091Z,81.72
2019-05-25T04:55:32.146Z,82.89
2019-05-25T04:56:39.695Z,83.44
2019-05-25T04:57:33.042Z,84.66
2019-05-25T04:58:32.064Z,84.42
2019-05-25T04:59:32.022Z,84.11
2019-05-25T05:00:32.063Z,84.56
2019-05-25T05:01:32.002Z,84.36
2019-05-25T05:02:31.990Z,84.25
2019-05-25T05:03:32.047Z,84.52
2019-05-25T05:04:31.974Z,84.46
2019-05-25T05:05:31.951Z,84.66
2019-05-25T05:06:31.956Z,84.56
2019-05-25T05:07:31.938Z,84.63
2019-05-25T05:08:35.499Z,84.52
2019-05-25T05:09:31.953Z,84.01
2019-05-25T05:10:31.921Z,83.50
2019-05-25T05:11:31.904Z,82.89
2019-05-25T05:12:31.884Z,83.25
2019-05-25T05:13:31.871Z,81.93
2019-05-25T05:14:31.865Z,81.68
2019-05-25T05:15:31.892Z,81.62
2019-05-25T05:16:39.708Z,81.51
2019-05-25T05:17:31.822Z,81.82
2019-05-25T05:18:31.810Z,82.13
2019-05-25T05:19:31.809Z,82.23
2019-05-25T05:20:31.799Z,81.48
2019-05-25T05:21:31.816Z,81.03
2019-05-25T05:22:31.777Z,81.30
2019-05-25T05:23:31.855Z,80.99
2019-05-25T05:24:31.748Z,80.34
2019-05-25T05:25:31.741Z,79.28
2019-05-25T05:26:31.774Z,78.77
2019-05-25T05:27:31.745Z,78.43
2019-05-25T05:28:31.710Z,77.82
2019-05-25T05:29:31.695Z,77.11
2019-05-25T05:30:31.689Z,77.62
2019-05-25T05:31:31.712Z,78.16
2019-05-25T05:32:31.662Z,78.67
2019-05-25T05:33:31.676Z,79.93
2019-05-25T05:34:31.663Z,80.24
2019-05-25T05:35:31.629Z,80.44
2019-05-25T05:36:31.628Z,79.83
2019-05-25T05:37:31.654Z,79.22
2019-05-25T05:38:31.664Z,80.65
2019-05-25T05:39:31.592Z,78.91
2019-05-25T05:40:31.579Z,79.87
2019-05-25T05:41:31.567Z,80.14
2019-05-25T05:42:31.563Z,80.96
2019-05-25T05:43:31.588Z,80.55
2019-05-25T05:44:31.579Z,79.63
2019-05-25T05:45:31.522Z,80.55
2019-05-25T05:46:31.519Z,80.96
2019-05-25T05:47:31.515Z,81.37
2019-05-25T05:48:38.733Z,81.46
2019-05-25T05:49:31.482Z,81.43
2019-05-25T05:50:31.470Z,80.20
2019-05-25T05:51:31.464Z,80.96
2019-05-25T05:52:31.446Z,79.83
2019-05-25T05:53:31.457Z,80.91
2019-05-25T05:54:31.429Z,80.82
2019-05-25T05:55:31.429Z,79.18
2019-05-25T05:56:31.418Z,80.10
2019-05-25T05:57:31.399Z,79.66
2019-05-25T05:58:31.396Z,78.64
2019-05-25T05:59:31.379Z,78.12
2019-05-25T06:00:31.387Z,78.53
2019-05-25T06:01:31.396Z,78.64
2019-05-25T06:02:31.341Z,78.23
2019-05-25T06:03:31.346Z,79.04
2019-05-25T06:04:31.359Z,80.41
2019-05-25T06:05:31.306Z,80.47
2019-05-25T06:06:31.299Z,80.16
2019-05-25T06:07:31.287Z,79.75
2019-05-25T06:08:31.273Z,79.86
2019-05-25T06:09:31.330Z,79.35
2019-05-25T06:10:31.255Z,79.21
2019-05-25T06:11:31.246Z,79.27
2019-05-25T06:12:31.229Z,78.77
2019-05-25T06:13:31.224Z,78.87
2019-05-25T06:14:31.213Z,77.51
2019-05-25T06:15:31.305Z,77.91
2019-05-25T06:16:31.192Z,77.91
2019-05-25T06:17:31.266Z,78.02
2019-05-25T06:18:31.161Z,77.64
2019-05-25T06:19:31.150Z,77.64
2019-05-25T06:20:39.745Z,78.16
2019-05-25T06:21:31.143Z,78.77
2019-05-25T06:22:31.124Z,78.77
2019-05-25T06:23:31.116Z,78.97
2019-05-25T06:24:31.104Z,78.16
2019-05-25T06:25:31.273Z,78.66
2019-05-25T06:26:31.108Z,79.07
2019-05-25T06:27:31.068Z,79.52
2019-05-25T06:28:31.055Z,80.02
2019-05-25T06:29:31.076Z,80.33
2019-05-25T06:30:31.088Z,80.33
2019-05-25T06:31:31.029Z,80.37
2019-05-25T06:32:31.015Z,81.09
2019-05-25T06:33:31.003Z,81.18
2019-05-25T06:34:31.148Z,81.18
2019-05-25T06:35:30.989Z,80.98
2019-05-25T06:36:31.021Z,80.94
2019-05-25T06:37:30.958Z,80.19
2019-05-25T06:38:31.006Z,80.09
2019-05-25T06:39:30.943Z,79.79
2019-05-25T06:40:30.925Z,79.48
2019-05-25T06:41:30.961Z,78.97
2019-05-25T06:42:30.949Z,78.97
2019-05-25T06:43:30.898Z,79.75
2019-05-25T06:44:30.893Z,79.07
2019-05-25T06:45:30.871Z,79.17
2019-05-25T06:46:30.883Z,79.68
2019-05-25T06:47:30.925Z,79.54
2019-05-25T06:48:30.871Z,79.38
2019-05-25T06:49:30.834Z,78.53
2019-05-25T06:50:30.817Z,79.58
2019-05-25T06:51:30.805Z,78.97
2019-05-25T06:52:37.784Z,79.48
2019-05-25T06:53:30.778Z,79.48
2019-05-25T06:54:30.786Z,79.38
2019-05-25T06:55:30.762Z,79.79
2019-05-25T06:56:30.756Z,78.97
2019-05-25T06:57:42.588Z,79.14
2019-05-25T06:58:31.735Z,78.63
2019-05-25T06:59:30.901Z,78.66
2019-05-25T07:00:30.713Z,77.51
2019-05-25T07:01:30.703Z,77.17
2019-05-25T07:02:30.718Z,77.47
2019-05-25T07:03:30.675Z,78.19
2019-05-25T07:04:30.661Z,78.19
2019-05-25T07:05:30.662Z,77.37
2019-05-25T07:06:30.644Z,76.65
2019-05-25T07:07:30.670Z,77.47
2019-05-25T07:08:30.618Z,77.47
2019-05-25T07:09:30.626Z,77.87
2019-05-25T07:10:30.593Z,76.62
2019-05-25T07:11:30.586Z,76.62
2019-05-25T07:12:30.578Z,76.72
2019-05-25T07:13:30.678Z,76.92
2019-05-25T07:14:30.579Z,77.70
2019-05-25T07:15:30.592Z,76.28
2019-05-25T07:16:30.529Z,77.09
2019-05-25T07:17:30.516Z,77.03
2019-05-25T07:18:30.511Z,76.89
2019-05-25T07:19:30.508Z,76.92
2019-05-25T07:20:30.544Z,76.11
2019-05-25T07:21:30.492Z,76.28
2019-05-25T07:22:30.474Z,77.44
2019-05-25T07:23:30.479Z,77.03
2019-05-25T07:24:37.431Z,77.74
2019-05-25T07:25:30.437Z,76.48
2019-05-25T07:26:30.461Z,77.50
2019-05-25T07:27:30.413Z,76.68
2019-05-25T07:28:30.439Z,77.29
2019-05-25T07:29:30.393Z,76.28
2019-05-25T07:30:30.399Z,77.20
2019-05-25T07:31:30.373Z,76.89
2019-05-25T07:32:30.384Z,76.89
2019-05-25T07:33:30.342Z,75.67
2019-05-25T07:34:30.480Z,76.92
2019-05-25T07:35:30.327Z,76.21
2019-05-25T07:36:30.363Z,76.07
2019-05-25T07:37:30.330Z,76.38
2019-05-25T07:38:30.294Z,76.95
2019-05-25T07:39:30.288Z,76.14
2019-05-25T07:40:30.274Z,75.53
2019-05-25T07:41:30.260Z,75.12
2019-05-25T07:42:30.345Z,74.92
2019-05-25T07:43:30.238Z,74.31
2019-05-25T07:44:30.237Z,74.38
2019-05-25T07:45:30.219Z,74.11
2019-05-25T07:46:30.208Z,74.72
2019-05-25T07:47:30.200Z,75.02
2019-05-25T07:48:30.234Z,75.40
2019-05-25T07:49:30.177Z,74.85
2019-05-25T07:50:30.164Z,75.23
2019-05-25T07:51:30.146Z,75.23
2019-05-25T07:52:30.143Z,74.41
2019-05-25T07:53:30.145Z,74.31
2019-05-25T07:54:30.134Z,74.72
2019-05-25T07:55:30.145Z,76.14
2019-05-25T07:56:37.082Z,74.62
2019-05-25T07:57:30.086Z,75.53
2019-05-25T07:58:30.113Z,74.11
2019-05-25T07:59:30.062Z,74.52
2019-05-25T08:00:30.051Z,74.07
2019-05-25T08:01:30.053Z,74.38
2019-05-25T08:02:30.034Z,74.28
2019-05-25T08:03:30.056Z,74.07
2019-05-25T08:04:30.017Z,73.74
2019-05-25T08:05:30.011Z,73.74
2019-05-25T08:06:30.041Z,73.94
2019-05-25T08:07:29.984Z,73.63
2019-05-25T08:08:29.965Z,74.14
2019-05-25T08:09:29.956Z,74.07
2019-05-25T08:10:29.994Z,72.82
2019-05-25T08:11:29.982Z,72.72
2019-05-25T08:12:29.929Z,73.39
2019-05-25T08:13:29.910Z,72.38
2019-05-25T08:14:29.925Z,72.38
2019-05-25T08:15:29.886Z,72.69
2019-05-25T08:16:29.884Z,72.17
2019-05-25T08:17:29.959Z,72.08
2019-05-25T08:18:29.860Z,71.88
2019-05-25T08:19:29.848Z,73.39
2019-05-25T08:20:29.832Z,72.38
2019-05-25T08:21:29.874Z,72.48
2019-05-25T08:22:29.821Z,71.88
2019-05-25T08:23:29.843Z,72.17
2019-05-25T08:24:29.789Z,72.17
2019-05-25T08:25:29.776Z,71.97
2019-05-25T08:26:29.775Z,72.99
2019-05-25T08:27:29.773Z,73.70
2019-05-25T08:28:36.725Z,73.70
2019-05-25T08:29:29.734Z,73.80
2019-05-25T08:30:29.724Z,72.58
2019-05-25T08:31:29.728Z,72.85
2019-05-25T08:32:29.708Z,74.21
2019-05-25T08:33:29.726Z,74.41
2019-05-25T08:34:29.750Z,73.50
2019-05-25T08:35:29.674Z,72.69
2019-05-25T08:36:29.949Z,73.19
2019-05-25T08:37:29.647Z,73.26
2019-05-25T08:38:29.639Z,72.55
2019-05-25T08:39:29.683Z,72.85
2019-05-25T08:40:29.622Z,71.91
2019-05-25T08:41:29.609Z,71.20
2019-05-25T08:42:29.616Z,70.92
2019-05-25T08:43:29.590Z,73.02
2019-05-25T08:44:29.632Z,72.61
2019-05-25T08:45:29.564Z,72.21
2019-05-25T08:46:29.554Z,72.01
2019-05-25T08:47:29.546Z,71.67
2019-05-25T08:48:29.581Z,71.88
2019-05-25T08:49:29.527Z,71.33
2019-05-25T08:50:37.579Z,70.83
2019-05-25T08:51:30.535Z,69.88
2019-05-25T08:52:29.490Z,68.87
2019-05-25T08:53:40.774Z,69.31
2019-05-25T08:54:30.473Z,69.48
2019-05-25T08:55:29.462Z,68.77
2019-05-25T08:56:29.446Z,68.16
2019-05-25T08:57:29.485Z,69.04
2019-05-25T08:58:29.419Z,69.44
2019-05-25T08:59:29.418Z,69.34
2019-05-25T09:00:36.385Z,68.43
2019-05-25T09:01:29.392Z,67.62
2019-05-25T09:02:29.375Z,67.82
2019-05-25T09:03:29.380Z,68.33
2019-05-25T09:04:29.403Z,68.66
2019-05-25T09:05:29.360Z,70.08
2019-05-25T09:06:29.340Z,68.26
2019-05-25T09:07:29.322Z,69.51
2019-05-25T09:08:29.362Z,69.92
2019-05-25T09:09:29.372Z,69.71
2019-05-25T09:10:29.301Z,70.18
2019-05-25T09:11:29.316Z,69.48
2019-05-25T09:12:29.277Z,68.77
2019-05-25T09:13:29.262Z,68.56
2019-05-25T09:14:29.868Z,68.36
2019-05-25T09:15:29.241Z,69.00
2019-05-25T09:16:29.264Z,69.07
2019-05-25T09:17:29.216Z,68.87
2019-05-25T09:18:29.204Z,67.85
2019-05-25T09:19:29.263Z,68.56
2019-05-25T09:20:29.200Z,69.51
2019-05-25T09:21:29.228Z,69.51
2019-05-25T09:22:29.165Z,68.90
2019-05-25T09:23:29.227Z,70.21
2019-05-25T09:24:29.159Z,69.84
2019-05-25T09:25:29.128Z,70.25
2019-05-25T09:26:29.115Z,70.56
2019-05-25T09:27:29.111Z,70.15
2019-05-25T09:28:29.100Z,70.28
2019-05-25T09:29:29.137Z,70.69
2019-05-25T09:30:29.099Z,71.06
2019-05-25T09:31:29.075Z,70.59
2019-05-25T09:32:36.898Z,70.79
2019-05-25T09:33:29.044Z,70.52
2019-05-25T09:34:29.109Z,70.92
2019-05-25T09:35:29.018Z,70.62
2019-05-25T09:36:29.025Z,70.42
2019-05-25T09:37:29.005Z,70.76
2019-05-25T09:38:29.025Z,70.96
2019-05-25T09:39:29.031Z,71.26
2019-05-25T09:40:28.961Z,72.08
2019-05-25T09:41:28.977Z,70.89
2019-05-25T09:42:28.995Z,71.43
2019-05-25T09:43:28.929Z,72.21
2019-05-25T09:44:28.923Z,72.75
2019-05-25T09:45:28.911Z,72.45
2019-05-25T09:46:28.900Z,72.65
2019-05-25T09:47:28.920Z,72.38
2019-05-25T09:48:28.874Z,73.60
2019-05-25T09:49:28.871Z,74.41
2019-05-25T09:50:28.877Z,74.21
2019-05-25T09:51:28.847Z,74.31
2019-05-25T09:52:28.849Z,75.40
2019-05-25T09:53:28.873Z,76.10
2019-05-25T09:54:28.810Z,76.51
2019-05-25T09:55:28.820Z,76.37
2019-05-25T09:56:28.796Z,76.28
2019-05-25T09:57:28.786Z,76.82
2019-05-25T09:58:28.769Z,76.41
2019-05-25T09:59:28.799Z,76.31
2019-05-25T10:00:28.748Z,77.02
2019-05-25T10:01:28.746Z,76.31
2019-05-25T10:02:28.735Z,77.02
2019-05-25T10:03:28.733Z,76.61
2019-05-25T10:04:35.696Z,76.92
2019-05-25T10:05:28.691Z,77.73
2019-05-25T10:06:28.692Z,77.12
2019-05-25T10:07:28.670Z,78.95
2019-05-25T10:08:28.694Z,79.36
2019-05-25T10:09:28.648Z,77.94
2019-05-25T10:10:28.637Z,76.92
2019-05-25T10:11:28.673Z,77.59
2019-05-25T10:12:28.681Z,79.93
2019-05-25T10:13:28.602Z,82.03
2019-05-25T10:14:28.655Z,79.79
2019-05-25T10:15:28.625Z,78.37
2019-05-25T10:16:28.576Z,80.57
2019-05-25T10:17:28.560Z,80.66
2019-05-25T10:18:28.547Z,79.55
2019-05-25T10:19:28.553Z,79.82
2019-05-25T10:20:28.563Z,79.21
2019-05-25T10:21:28.527Z,78.53
2019-05-25T10:22:28.509Z,79.61
2019-05-25T10:23:28.494Z,78.64
2019-05-25T10:24:28.939Z,79.35
2019-05-25T10:25:28.473Z,80.66
2019-05-25T10:26:28.498Z,81.01
2019-05-25T10:27:28.479Z,79.38
2019-05-25T10:28:28.438Z,79.38
2019-05-25T10:29:37.263Z,80.74
2019-05-25T10:30:29.427Z,80.33
2019-05-25T10:31:28.429Z,80.24
2019-05-25T10:32:28.395Z,80.68
2019-05-25T10:33:28.450Z,80.68
2019-05-25T10:34:28.910Z,80.72
2019-05-25T10:35:28.361Z,80.82
2019-05-25T10:36:35.457Z,82.34
2019-05-25T10:37:28.341Z,81.37
2019-05-25T10:38:28.330Z,81.02
2019-05-25T10:39:28.324Z,80.96
2019-05-25T10:40:28.318Z,81.67
2019-05-25T10:41:28.335Z,80.76
2019-05-25T10:42:28.289Z,82.38
2019-05-25T10:43:28.283Z,80.85
2019-05-25T10:44:28.273Z,81.37
2019-05-25T10:45:28.307Z,82.07
2019-05-25T10:46:28.339Z,81.98
2019-05-25T10:47:28.256Z,83.20
2019-05-25T10:48:28.258Z,82.99
2019-05-25T10:49:28.247Z,82.59
2019-05-25T10:50:28.205Z,80.76
2019-05-25T10:51:28.195Z,82.45
2019-05-25T10:52:28.187Z,82.65
2019-05-25T10:53:28.209Z,82.24
2019-05-25T10:54:28.203Z,82.28
2019-05-25T10:55:28.155Z,81.16
2019-05-25T10:56:28.149Z,81.16
2019-05-25T10:57:28.125Z,80.96
2019-05-25T10:58:28.115Z,80.76
2019-05-25T10:59:28.113Z,80.35
2019-05-25T11:00:28.135Z,80.65
2019-05-25T11:01:28.104Z,80.55
2019-05-25T11:02:28.072Z,80.65
2019-05-25T11:03:28.109Z,80.08
2019-05-25T11:04:28.048Z,80.11
2019-05-25T11:05:28.053Z,81.04
2019-05-25T11:06:28.028Z,80.73
2019-05-25T11:07:28.102Z,80.63
2019-05-25T11:08:35.497Z,82.09
2019-05-25T11:09:27.997Z,81.48
2019-05-25T11:10:27.983Z,81.68
2019-05-25T11:11:27.972Z,80.97
2019-05-25T11:12:27.959Z,81.07
2019-05-25T11:13:27.951Z,82.90
2019-05-25T11:14:27.988Z,84.03
2019-05-25T11:15:27.970Z,84.12
2019-05-25T11:16:27.934Z,83.82
2019-05-25T11:17:27.920Z,83.92
2019-05-25T11:18:27.932Z,84.74
2019-05-25T11:19:27.928Z,83.98
2019-05-25T11:20:27.877Z,82.87
2019-05-25T11:21:27.873Z,84.19
2019-05-25T11:22:27.863Z,82.46
2019-05-25T11:23:27.897Z,81.54
2019-05-25T11:24:27.840Z,83.48
2019-05-25T11:25:27.864Z,82.97
2019-05-25T11:26:27.814Z,83.17
2019-05-25T11:27:27.804Z,82.05
2019-05-25T11:28:27.789Z,83.17
2019-05-25T11:29:27.830Z,83.84
2019-05-25T11:30:27.804Z,84.11
2019-05-25T11:31:27.784Z,83.23
2019-05-25T11:32:27.747Z,84.11
2019-05-25T11:33:27.755Z,82.85
2019-05-25T11:34:28.466Z,83.06
2019-05-25T11:35:27.717Z,82.04
2019-05-25T11:36:27.734Z,80.88
2019-05-25T11:37:27.715Z,82.17
2019-05-25T11:38:27.686Z,80.80
2019-05-25T11:39:27.667Z,80.30
2019-05-25T11:40:34.647Z,79.59
2019-05-25T11:41:27.644Z,79.69
2019-05-25T11:42:27.648Z,78.88
2019-05-25T11:43:27.628Z,79.66
2019-05-25T11:44:27.622Z,80.03
2019-05-25T11:45:27.610Z,78.71
2019-05-25T11:46:27.595Z,78.04
2019-05-25T11:47:27.650Z,78.55
2019-05-25T11:48:27.650Z,79.97
2019-05-25T11:49:27.563Z,78.99
2019-05-25T11:50:27.592Z,79.60
2019-05-25T11:51:27.543Z,80.21
2019-05-25T11:52:27.528Z,79.90
2019-05-25T11:53:27.523Z,80.76
2019-05-25T11:54:27.507Z,80.24
2019-05-25T11:55:27.543Z,80.45
2019-05-25T11:56:27.489Z,80.79
2019-05-25T11:57:27.483Z,80.90
2019-05-25T11:58:27.483Z,80.04
2019-05-25T11:59:27.462Z,80.49
2019-05-25T12:00:27.447Z,81.13
2019-05-25T12:01:27.500Z,81.20
2019-05-25T12:02:27.425Z,81.30
2019-05-25T12:03:27.450Z,81.20
2019-05-25T12:04:27.402Z,80.69
2019-05-25T12:05:27.389Z,80.99
2019-05-25T12:06:27.387Z,80.90
2019-05-25T12:07:27.423Z,80.99
2019-05-25T12:08:27.362Z,80.29
2019-05-25T12:09:27.360Z,80.69
2019-05-25T12:10:27.346Z,79.27
2019-05-25T12:11:27.319Z,78.35
2019-05-25T12:12:34.299Z,80.04
2019-05-25T12:13:27.304Z,79.63
2019-05-25T12:14:27.292Z,79.37
2019-05-25T12:15:27.293Z,79.47
2019-05-25T12:16:27.267Z,79.37
2019-05-25T12:17:27.260Z,79.16
2019-05-25T12:18:27.242Z,78.69
2019-05-25T12:19:27.296Z,79.61
2019-05-25T12:20:27.261Z,79.10
2019-05-25T12:21:27.213Z,80.11
2019-05-25T12:22:27.208Z,80.11
2019-05-25T12:23:27.227Z,80.22
2019-05-25T12:24:27.191Z,80.11
2019-05-25T12:25:27.176Z,79.81
2019-05-25T12:26:27.225Z,79.64
2019-05-25T12:27:27.153Z,80.46
2019-05-25T12:28:27.138Z,80.56
2019-05-25T12:29:27.125Z,80.77
2019-05-25T12:30:39.650Z,81.79
2019-05-25T12:31:28.186Z,82.40
2019-05-25T12:32:27.097Z,81.68
2019-05-25T12:33:27.087Z,82.43
2019-05-25T12:34:27.115Z,82.33
2019-05-25T12:35:27.064Z,81.93
2019-05-25T12:36:27.047Z,81.93
2019-05-25T12:37:27.139Z,82.54
2019-05-25T12:38:27.033Z,82.54
2019-05-25T12:39:27.016Z,83.04
2019-05-25T12:40:27.062Z,84.37
2019-05-25T12:41:26.997Z,82.84
2019-05-25T12:42:26.988Z,84.27
2019-05-25T12:43:27.041Z,83.04
2019-05-25T12:44:34.686Z,83.35
2019-05-25T12:45:26.951Z,83.56
2019-05-25T12:46:26.976Z,84.17
2019-05-25T12:47:26.953Z,83.35
2019-05-25T12:48:26.916Z,83.04
2019-05-25T12:49:26.909Z,83.25
2019-05-25T12:50:26.907Z,82.94
2019-05-25T12:51:26.955Z,82.70
2019-05-25T12:52:26.916Z,82.60